Time;durP1;ratioP1;P1;durP2;ratioP2;P2;SDS_P1;SDS_P2;PMS_P1;PMS_P2;Temp;Humidity;BMP_temperature;BMP_pressure;BME280_temperature;BME280_humidity;BME280_pressure;Samples;Min_cycle;Max_cycle;Signal;HPM_P1;HPM_P2
2021/09/27 00:01:11;;;;;;;;;;;20.90;72.10;;;;;;5015466;28;1301;-68
2021/09/27 00:03:36;;;;;;;;;;;20.90;72.10;;;;;;4981188;28;1285;-67
2021/09/27 00:06:02;;;;;;;;;;;20.90;72.10;;;;;;4998110;28;1374;-67
2021/09/27 00:08:27;;;;;;;;;;;20.90;72.10;;;;;;4998126;28;1361;-67
2021/09/27 00:10:57;;;;;;;;;;;20.90;72.10;;;;;;5014446;28;1463;-67
2021/09/27 00:13:23;;;;;;;;;;;20.90;72.10;;;;;;5015417;28;1408;-67
2021/09/27 00:15:49;;;;;;;;;;;20.90;72.10;;;;;;4997902;28;2044;-67
2021/09/27 00:18:15;;;;;;;;;;;20.90;72.10;;;;;;5015498;28;1411;-67
2021/09/27 00:20:41;;;;;;;;;;;20.90;72.10;;;;;;5014960;28;1245;-67
2021/09/27 00:23:06;;;;;;;;;;;20.90;72.10;;;;;;4997894;28;1334;-67
2021/09/27 00:25:32;;;;;;;;;;;20.90;72.10;;;;;;4997589;28;1310;-67
2021/09/27 00:27:57;;;;;;;;;;;20.90;72.10;;;;;;4997948;28;1372;-67
2021/09/27 00:30:23;;;;;;;;;;;20.90;72.10;;;;;;5014759;28;1216;-68
2021/09/27 00:32:48;;;;;;;;;;;20.90;72.10;;;;;;4997652;28;1359;-68
2021/09/27 00:35:16;;;;;;;;;;;20.90;72.10;;;;;;4997342;28;1915;-68
2021/09/27 00:37:41;;;;;;;;;;;20.90;72.10;;;;;;4997704;28;1490;-68
2021/09/27 00:40:07;;;;;;;;;;;20.90;72.10;;;;;;5014636;28;1353;-68
2021/09/27 00:42:33;;;;;;;;;;;20.90;72.20;;;;;;5014920;28;1336;-68
2021/09/27 00:44:58;;;;;;;;;;;20.90;72.20;;;;;;4997392;28;1331;-68
2021/09/27 00:47:24;;;;;;;;;;;20.90;72.20;;;;;;4997345;28;1357;-67
2021/09/27 00:49:49;;;;;;;;;;;20.90;72.20;;;;;;5014497;28;1265;-68
2021/09/27 00:52:15;;;;;;;;;;;20.90;72.20;;;;;;4997482;28;1352;-68
2021/09/27 00:54:41;;;;;;;;;;;20.90;72.20;;;;;;5014543;28;1894;-67
2021/09/27 00:57:12;;;;;;;;;;;20.90;72.20;;;;;;5014592;28;1382;-68
2021/09/27 00:59:38;;;;;;;;;;;20.90;72.20;;;;;;4981058;28;1429;-67
2021/09/27 01:02:04;;;;;;;;;;;20.90;72.20;;;;;;4996789;28;1403;-67
2021/09/27 01:04:29;;;;;;;;;;;20.90;72.20;;;;;;5014506;28;1292;-67
2021/09/27 01:07:01;;;;;;;;;;;20.90;72.20;;;;;;5014509;28;1365;-67
2021/09/27 01:09:26;;;;;;;;;;;20.90;73.00;;;;;;5014206;28;1349;-68
2021/09/27 01:11:51;;;;;;;;;;;20.90;72.20;;;;;;5013940;28;1325;-68
2021/09/27 01:14:35;;;;;;;;;;;20.90;72.30;;;;;;5014386;28;1967;-68
2021/09/27 01:17:13;;;;;;;;;;;20.90;72.20;;;;;;5014265;28;1372;-68
2021/09/27 01:19:39;;;;;;;;;;;20.90;72.20;;;;;;4996603;28;1344;-68
2021/09/27 01:22:07;;;;;;;;;;;20.90;72.20;;;;;;5013568;28;1284;-68
2021/09/27 01:24:58;;;;;;;;;;;20.90;72.30;;;;;;4996041;28;1444;-68
2021/09/27 01:27:26;;;;;;;;;;;20.90;72.30;;;;;;4996788;28;1333;-68
2021/09/27 01:29:51;;;;;;;;;;;20.90;72.30;;;;;;5013664;28;1290;-68
2021/09/27 01:32:23;;;;;;;;;;;20.90;72.30;;;;;;5014038;28;1325;-68
2021/09/27 01:34:48;;;;;;;;;;;20.90;72.30;;;;;;4996301;28;1973;-68
2021/09/27 01:37:18;;;;;;;;;;;20.90;72.30;;;;;;5013882;28;1265;-68
2021/09/27 01:39:46;;;;;;;;;;;20.90;72.20;;;;;;4995992;28;1332;-68
2021/09/27 01:42:13;;;;;;;;;;;20.90;72.20;;;;;;4996206;28;1269;-68
2021/09/27 01:44:56;;;;;;;;;;;20.90;72.20;;;;;;4996272;28;1355;-68
2021/09/27 01:47:24;;;;;;;;;;;20.90;72.10;;;;;;4996165;28;1160;-68
2021/09/27 01:49:49;;;;;;;;;;;20.90;72.10;;;;;;4996041;28;1348;-68
2021/09/27 01:52:16;;;;;;;;;;;21.00;72.10;;;;;;5013541;28;1326;-68
2021/09/27 01:54:42;;;;;;;;;;;21.00;72.00;;;;;;4996097;28;1902;-68
2021/09/27 01:57:26;;;;;;;;;;;21.00;72.00;;;;;;4996136;28;1374;-68
2021/09/27 01:59:52;;;;;;;;;;;21.00;71.90;;;;;;5013306;28;1389;-68
2021/09/27 02:02:37;;;;;;;;;;;21.10;71.90;;;;;;5013025;28;1253;-68
2021/09/27 02:05:18;;;;;;;;;;;21.10;71.80;;;;;;5012509;28;1341;-68
2021/09/27 02:07:52;;;;;;;;;;;21.10;71.80;;;;;;5013467;28;1073;-68
2021/09/27 02:10:25;;;;;;;;;;;21.10;71.70;;;;;;4995562;28;1468;-68
2021/09/27 02:12:53;;;;;;;;;;;21.10;71.60;;;;;;4979553;28;1293;-68
2021/09/27 02:15:20;;;;;;;;;;;21.10;71.60;;;;;;4995792;28;1910;-68
2021/09/27 02:18:05;;;;;;;;;;;21.10;71.50;;;;;;4995666;28;1271;-68
2021/09/27 02:20:32;;;;;;;;;;;21.10;71.50;;;;;;4994346;28;1248;-66
2021/09/27 02:23:16;;;;;;;;;;;21.10;71.40;;;;;;4987000;28;1392;-66
2021/09/27 02:25:42;;;;;;;;;;;21.20;71.40;;;;;;5003802;28;1397;-66
2021/09/27 02:28:08;;;;;;;;;;;21.20;71.40;;;;;;4988125;28;1339;-66
2021/09/27 02:30:36;;;;;;;;;;;21.20;71.30;;;;;;4986381;28;1334;-66
2021/09/27 02:33:01;;;;;;;;;;;21.20;71.30;;;;;;4986524;28;1103;-67
2021/09/27 02:35:31;;;;;;;;;;;21.20;71.30;;;;;;4986531;28;1887;-67
2021/09/27 02:38:01;;;;;;;;;;;21.20;71.20;;;;;;4995300;28;1415;-66
2021/09/27 02:40:26;;;;;;;;;;;21.20;71.20;;;;;;5011920;28;1675;-67
2021/09/27 02:42:55;;;;;;;;;;;21.20;71.10;;;;;;5013003;28;1395;-69
2021/09/27 02:45:21;;;;;;;;;;;21.20;71.10;;;;;;4995283;28;1651;-69
2021/09/27 02:47:47;;;;;;;;;;;21.20;71.10;;;;;;5013147;28;1406;-69
2021/09/27 02:50:15;;;;;;;;;;;21.20;71.10;;;;;;4994263;28;1386;-68
2021/09/27 02:52:40;;;;;;;;;;;21.20;71.10;;;;;;4995168;28;1451;-68
2021/09/27 02:55:10;;;;;;;;;;;21.20;71.10;;;;;;4995259;28;1890;-68
2021/09/27 02:57:54;;;;;;;;;;;21.30;71.10;;;;;;4995407;28;1201;-68
2021/09/27 03:00:20;;;;;;;;;;;21.30;71.20;;;;;;5012542;28;1367;-68
2021/09/27 03:02:54;;;;;;;;;;;21.20;71.10;;;;;;4995476;28;1093;-68
2021/09/27 03:05:35;;;;;;;;;;;21.20;71.00;;;;;;5012725;28;1121;-68
2021/09/27 03:08:00;;;;;;;;;;;21.20;71.10;;;;;;4995378;28;1702;-68
2021/09/27 03:10:40;;;;;;;;;;;21.20;71.10;;;;;;5012337;28;1199;-68
2021/09/27 03:13:14;;;;;;;;;;;21.30;71.20;;;;;;4995109;28;1180;-69
2021/09/27 03:15:45;;;;;;;;;;;21.20;71.10;;;;;;4995283;28;1895;-68
2021/09/27 03:18:15;;;;;;;;;;;21.20;71.10;;;;;;5013053;28;1203;-68
2021/09/27 03:20:44;;;;;;;;;;;21.20;71.10;;;;;;4994783;28;1299;-68
2021/09/27 03:23:12;;;;;;;;;;;21.20;71.10;;;;;;4995153;28;1109;-68
2021/09/27 03:25:50;;;;;;;;;;;21.20;71.10;;;;;;4995132;28;1124;-68
2021/09/27 03:28:30;;;;;;;;;;;21.20;71.20;;;;;;5012745;28;1192;-68
2021/09/27 03:31:19;;;;;;;;;;;21.20;71.20;;;;;;4995133;28;1301;-69
2021/09/27 03:33:47;;;;;;;;;;;21.20;71.20;;;;;;4966698;28;1898;-68
2021/09/27 03:36:35;;;;;;;;;;;21.20;71.30;;;;;;5012296;28;1133;-68
2021/09/27 03:39:19;;;;;;;;;;;21.20;71.20;;;;;;4994895;28;1227;-68
2021/09/27 03:41:49;;;;;;;;;;;21.20;71.20;;;;;;5012115;28;1164;-68
2021/09/27 03:44:21;;;;;;;;;;;21.20;71.30;;;;;;5012667;28;1168;-68
2021/09/27 03:46:53;;;;;;;;;;;21.20;71.30;;;;;;4996474;28;1397;-68
2021/09/27 03:49:30;;;;;;;;;;;21.20;71.40;;;;;;4998477;28;1457;-68
2021/09/27 03:52:00;;;;;;;;;;;21.20;71.30;;;;;;4998133;28;1054;-68
2021/09/27 03:54:27;;;;;;;;;;;21.20;71.40;;;;;;4998286;28;1967;-68
2021/09/27 03:56:57;;;;;;;;;;;21.20;71.40;;;;;;4998311;28;1086;-68
2021/09/27 03:59:28;;;;;;;;;;;21.20;71.40;;;;;;4998233;28;1303;-68
2021/09/27 04:01:56;;;;;;;;;;;21.20;71.40;;;;;;5015422;28;1105;-68
2021/09/27 04:04:36;;;;;;;;;;;21.20;71.40;;;;;;4998516;28;1094;-69
2021/09/27 04:07:08;;;;;;;;;;;21.20;71.40;;;;;;5015757;28;1073;-68
2021/09/27 04:09:52;;;;;;;;;;;21.20;71.40;;;;;;4998212;28;1319;-68
2021/09/27 04:12:24;;;;;;;;;;;21.20;71.40;;;;;;5015573;28;1443;-68
2021/09/27 04:14:55;;;;;;;;;;;21.20;71.40;;;;;;5015226;28;1911;-68
2021/09/27 04:17:30;;;;;;;;;;;21.20;71.40;;;;;;5015465;28;1171;-68
2021/09/27 04:19:58;;;;;;;;;;;21.20;71.40;;;;;;5015044;28;1261;-68
2021/09/27 04:22:27;;;;;;;;;;;21.20;71.40;;;;;;5015465;28;1057;-68
2021/09/27 04:24:55;;;;;;;;;;;21.20;71.30;;;;;;4997742;28;1132;-68
2021/09/27 04:27:28;;;;;;;;;;;21.20;71.30;;;;;;5015308;28;1069;-68
2021/09/27 04:30:03;;;;;;;;;;;21.20;71.30;;;;;;4997178;28;1287;-68
2021/09/27 04:32:47;;;;;;;;;;;21.20;71.20;;;;;;4997819;28;1057;-68
2021/09/27 04:35:30;;;;;;;;;;;21.20;71.20;;;;;;5015133;28;1918;-68
2021/09/27 04:37:56;;;;;;;;;;;21.30;71.20;;;;;;5014917;28;1377;-68
2021/09/27 04:40:28;;;;;;;;;;;21.20;71.10;;;;;;4997279;28;1483;-68
2021/09/27 04:43:00;;;;;;;;;;;21.30;71.20;;;;;;4997460;28;1129;-68
2021/09/27 04:45:40;;;;;;;;;;;21.30;71.10;;;;;;4997550;28;1093;-68
2021/09/27 04:48:14;;;;;;;;;;;21.30;71.10;;;;;;4997518;28;1073;-68
2021/09/27 04:50:50;;;;;;;;;;;21.30;71.10;;;;;;4996901;28;1198;-68
2021/09/27 04:53:38;;;;;;;;;;;21.30;71.00;;;;;;4997341;28;1062;-68
2021/09/27 04:56:27;;;;;;;;;;;21.30;71.00;;;;;;4997096;28;1464;-68
2021/09/27 04:58:59;;;;;;;;;;;21.30;71.00;;;;;;4997308;28;1270;-68
2021/09/27 05:01:29;;;;;;;;;;;21.30;71.00;;;;;;5014441;28;1057;-68
2021/09/27 05:04:05;;;;;;;;;;;21.30;71.00;;;;;;4997016;28;1177;-68
2021/09/27 05:06:41;;;;;;;;;;;21.30;70.90;;;;;;4997082;28;1077;-68
2021/09/27 05:09:06;;;;;;;;;;;21.30;70.90;;;;;;4996834;28;1360;-69
2021/09/27 05:11:48;;;;;;;;;;;21.30;70.90;;;;;;5014141;28;1328;-68
2021/09/27 05:14:13;;;;;;;;;;;21.40;70.90;;;;;;4996830;28;1894;-68
2021/09/27 05:16:57;;;;;;;;;;;21.40;70.90;;;;;;5014539;28;1329;-68
2021/09/27 05:19:33;;;;;;;;;;;21.40;70.90;;;;;;5014269;28;1269;-68
2021/09/27 05:22:03;;;;;;;;;;;21.40;70.90;;;;;;5001341;28;1089;-68
2021/09/27 05:24:31;;;;;;;;;;;21.40;70.90;;;;;;4996639;28;1153;-68
2021/09/27 05:27:12;;;;;;;;;;;21.40;70.90;;;;;;4996741;28;1065;-68
2021/09/27 05:29:40;;;;;;;;;;;21.40;70.90;;;;;;5013909;28;1302;-69
2021/09/27 05:32:25;;;;;;;;;;;21.40;70.90;;;;;;5013524;28;1096;-68
2021/09/27 05:35:08;;;;;;;;;;;21.40;70.90;;;;;;5013873;28;1967;-68
2021/09/27 05:37:50;;;;;;;;;;;21.40;70.80;;;;;;5014069;28;1125;-68
2021/09/27 05:40:15;;;;;;;;;;;21.40;70.90;;;;;;4996047;28;1319;-69
2021/09/27 05:42:45;;;;;;;;;;;21.40;70.80;;;;;;5013720;28;1317;-68
2021/09/27 05:45:20;;;;;;;;;;;21.40;70.80;;;;;;5013775;28;1058;-68
2021/09/27 05:47:56;;;;;;;;;;;21.40;70.80;;;;;;4995918;28;1326;-68
2021/09/27 05:50:26;;;;;;;;;;;21.40;70.80;;;;;;4995700;28;1342;-68
2021/09/27 05:52:54;;;;;;;;;;;21.40;70.80;;;;;;4995952;28;1207;-69
2021/09/27 05:55:20;;;;;;;;;;;21.40;70.80;;;;;;5013501;28;1956;-68
2021/09/27 05:57:49;;;;;;;;;;;21.40;70.80;;;;;;5013654;28;1328;-68
2021/09/27 06:00:18;;;;;;;;;;;21.40;70.80;;;;;;4995599;28;1388;-68
2021/09/27 06:02:56;;;;;;;;;;;21.40;70.80;;;;;;4996168;28;1302;-68
2021/09/27 06:05:51;;;;;;;;;;;21.40;70.80;;;;;;4996101;28;1298;-68
2021/09/27 06:08:29;;;;;;;;;;;21.40;70.70;;;;;;4926223;28;1372;-68
2021/09/27 06:10:56;;;;;;;;;;;21.40;70.70;;;;;;4995311;28;1235;-68
2021/09/27 06:13:23;;;;;;;;;;;21.40;70.70;;;;;;4995812;28;1368;-68
2021/09/27 06:15:53;;;;;;;;;;;21.40;70.70;;;;;;4995493;28;1969;-68
2021/09/27 06:18:25;;;;;;;;;;;21.40;70.70;;;;;;4995427;28;1265;-68
2021/09/27 06:21:02;;;;;;;;;;;21.40;70.70;;;;;;4997394;28;1264;-67
2021/09/27 06:23:46;;;;;;;;;;;21.50;70.70;;;;;;5013250;28;1688;-68
2021/09/27 06:26:12;;;;;;;;;;;21.40;70.70;;;;;;5012504;28;1281;-69
2021/09/27 06:28:51;;;;;;;;;;;21.40;70.70;;;;;;4995693;28;1292;-68
2021/09/27 06:31:17;;;;;;;;;;;21.40;70.70;;;;;;5012831;28;1073;-69
2021/09/27 06:33:45;;;;;;;;;;;21.40;70.70;;;;;;5013134;28;1898;-69
2021/09/27 06:36:12;;;;;;;;;;;21.40;70.70;;;;;;5013000;28;1152;-68
2021/09/27 06:38:37;;;;;;;;;;;21.40;70.70;;;;;;4995502;28;1371;-69
2021/09/27 06:41:03;;;;;;;;;;;21.40;70.70;;;;;;4994979;28;1397;-69
2021/09/27 06:43:29;;;;;;;;;;;21.40;70.80;;;;;;4995547;28;1288;-69
2021/09/27 06:45:54;;;;;;;;;;;21.40;70.70;;;;;;4995212;28;1345;-68
2021/09/27 06:48:20;;;;;;;;;;;21.40;70.80;;;;;;4995619;28;1132;-68
2021/09/27 06:50:45;;;;;;;;;;;21.40;70.80;;;;;;4994836;28;1400;-68
2021/09/27 06:53:11;;;;;;;;;;;21.40;70.80;;;;;;5012924;28;1085;-69
2021/09/27 06:55:36;;;;;;;;;;;21.40;70.80;;;;;;5008293;28;2154;-69
2021/09/27 06:58:02;;;;;;;;;;;21.40;70.80;;;;;;5023615;28;1168;-68
2021/09/27 07:00:27;;;;;;;;;;;21.40;70.90;;;;;;5010016;28;1382;-68
2021/09/27 07:02:52;;;;;;;;;;;21.40;70.90;;;;;;5012921;28;1069;-68
2021/09/27 07:05:18;;;;;;;;;;;21.40;70.90;;;;;;4995364;28;1295;-68
2021/09/27 07:07:43;;;;;;;;;;;21.30;70.80;;;;;;5013290;28;1270;-68
2021/09/27 07:10:10;;;;;;;;;;;21.40;70.90;;;;;;5012318;28;1350;-68
2021/09/27 07:12:36;;;;;;;;;;;21.40;71.00;;;;;;4978838;28;1335;-68
2021/09/27 07:15:01;;;;;;;;;;;21.40;71.00;;;;;;5012557;28;1959;-68
2021/09/27 07:17:27;;;;;;;;;;;21.40;71.00;;;;;;4995209;28;1349;-68
2021/09/27 07:19:52;;;;;;;;;;;21.40;71.00;;;;;;5012495;28;1194;-68
2021/09/27 07:22:18;;;;;;;;;;;21.30;71.00;;;;;;5014980;28;1325;-67
2021/09/27 07:24:43;;;;;;;;;;;21.40;71.10;;;;;;5016203;28;1331;-68
2021/09/27 07:27:09;;;;;;;;;;;21.30;71.00;;;;;;4998796;28;1267;-68
2021/09/27 07:29:34;;;;;;;;;;;21.30;71.00;;;;;;5016243;28;1399;-68
2021/09/27 07:31:59;;;;;;;;;;;21.30;71.10;;;;;;5016097;28;1269;-68
2021/09/27 07:34:25;;;;;;;;;;;21.30;71.10;;;;;;5016281;28;1914;-68
2021/09/27 07:36:51;;;;;;;;;;;21.30;71.10;;;;;;5016492;28;1256;-68
2021/09/27 07:39:18;;;;;;;;;;;21.30;71.10;;;;;;4998339;28;1401;-68
2021/09/27 07:41:44;;;;;;;;;;;21.30;71.20;;;;;;5015900;28;1301;-68
2021/09/27 07:44:09;;;;;;;;;;;21.30;71.20;;;;;;5016111;28;1302;-68
2021/09/27 07:46:35;;;;;;;;;;;21.30;71.20;;;;;;5016064;28;1278;-68
2021/09/27 07:49:00;;;;;;;;;;;21.30;71.40;;;;;;4998490;28;1314;-68
2021/09/27 07:51:26;;;;;;;;;;;21.30;71.30;;;;;;5015675;28;1380;-69
2021/09/27 07:53:51;;;;;;;;;;;21.30;71.40;;;;;;4998171;28;1918;-68
2021/09/27 07:56:17;;;;;;;;;;;21.30;71.40;;;;;;5015747;28;1330;-68
2021/09/27 07:58:42;;;;;;;;;;;21.30;71.40;;;;;;4998210;28;1363;-68
2021/09/27 08:01:07;;;;;;;;;;;21.30;71.40;;;;;;4997712;28;1273;-69
2021/09/27 08:03:33;;;;;;;;;;;21.30;71.40;;;;;;5015719;28;1329;-68
2021/09/27 08:05:58;;;;;;;;;;;21.30;71.50;;;;;;5015709;28;1270;-68
2021/09/27 08:08:24;;;;;;;;;;;21.30;71.50;;;;;;5015389;28;1270;-68
2021/09/27 08:10:49;;;;;;;;;;;21.30;71.50;;;;;;5015297;28;1289;-68
2021/09/27 08:13:15;;;;;;;;;;;21.20;72.20;;;;;;5015479;28;1285;-69
2021/09/27 08:15:42;;;;;;;;;;;21.20;71.50;;;;;;4998038;28;1910;-69
2021/09/27 08:18:08;;;;;;;;;;;21.20;71.50;;;;;;4997921;28;1269;-69
2021/09/27 08:20:35;;;;;;;;;;;21.20;72.30;;;;;;5015065;28;1292;-69
2021/09/27 08:23:00;;;;;;;;;;;21.20;71.60;;;;;;4997662;28;1319;-69
2021/09/27 08:25:25;;;;;;;;;;;21.20;71.60;;;;;;5015367;28;1069;-69
2021/09/27 08:27:51;;;;;;;;;;;21.20;71.60;;;;;;5015352;28;1283;-69
2021/09/27 08:30:18;;;;;;;;;;;21.20;71.70;;;;;;5014865;28;1268;-69
2021/09/27 08:32:44;;;;;;;;;;;21.20;71.70;;;;;;5014589;28;1146;-69
2021/09/27 08:35:10;;;;;;;;;;;21.20;71.80;;;;;;4997425;28;1910;-69
2021/09/27 08:37:35;;;;;;;;;;;21.20;71.80;;;;;;5014793;28;1262;-69
2021/09/27 08:40:00;;;;;;;;;;;21.20;71.90;;;;;;5014916;28;1309;-69
2021/09/27 08:42:32;;;;;;;;;;;21.20;71.90;;;;;;4997137;28;1298;-69
2021/09/27 08:45:02;;;;;;;;;;;21.20;71.90;;;;;;4997479;28;1360;-69
2021/09/27 08:47:32;;;;;;;;;;;21.20;72.80;;;;;;4997882;28;1334;-68
2021/09/27 08:49:59;;;;;;;;;;;21.20;72.10;;;;;;4997016;28;1293;-68
2021/09/27 08:52:26;;;;;;;;;;;21.20;72.20;;;;;;4997204;28;1351;-69
2021/09/27 08:54:51;;;;;;;;;;;21.20;72.20;;;;;;4997409;28;1967;-68
2021/09/27 08:57:17;;;;;;;;;;;21.20;72.20;;;;;;4997021;28;1353;-69
2021/09/27 09:00:01;;;;;;;;;;;21.20;72.30;;;;;;5014645;28;1267;-69
2021/09/27 09:02:36;;;;;;;;;;;21.20;72.30;;;;;;5014339;28;1144;-69
2021/09/27 09:05:05;;;;;;;;;;;21.20;72.30;;;;;;4997227;28;1350;-69
2021/09/27 09:07:30;;;;;;;;;;;21.20;72.30;;;;;;5014449;28;1336;-69
2021/09/27 09:09:56;;;;;;;;;;;21.20;72.40;;;;;;4996706;28;1453;-68
2021/09/27 09:12:31;;;;;;;;;;;21.20;72.40;;;;;;4996838;28;1070;-68
2021/09/27 09:15:02;;;;;;;;;;;21.20;72.40;;;;;;5014169;28;1903;-68
2021/09/27 09:17:33;;;;;;;;;;;21.20;72.50;;;;;;4996957;28;1263;-68
2021/09/27 09:19:59;;;;;;;;;;;21.20;72.50;;;;;;4996541;28;1318;-68
2021/09/27 09:22:27;;;;;;;;;;;21.20;72.50;;;;;;4996814;28;1337;-69
2021/09/27 09:24:53;;;;;;;;;;;21.20;72.60;;;;;;4996632;28;1334;-69
2021/09/27 09:27:18;;;;;;;;;;;21.20;72.60;;;;;;4995674;28;2096;-69
2021/09/27 09:29:44;;;;;;;;;;;21.20;72.60;;;;;;5019502;28;1500;-68
2021/09/27 09:32:23;;;;;;;;;;;21.20;72.60;;;;;;5017135;28;1132;-68
2021/09/27 09:34:50;;;;;;;;;;;21.20;72.60;;;;;;4996323;28;1969;-68
2021/09/27 09:37:20;;;;;;;;;;;21.10;72.60;;;;;;4996638;28;1086;-68
2021/09/27 09:39:54;;;;;;;;;;;21.20;72.60;;;;;;4980229;28;1556;-68
2021/09/27 09:42:19;;;;;;;;;;;21.20;72.70;;;;;;4996074;28;1093;-68
2021/09/27 09:44:48;;;;;;;;;;;21.20;72.60;;;;;;5013228;28;1329;-68
2021/09/27 09:47:27;;;;;;;;;;;21.20;72.70;;;;;;4996322;28;1082;-67
2021/09/27 09:50:05;;;;;;;;;;;21.20;72.70;;;;;;4996140;28;1323;-68
2021/09/27 09:52:31;;;;;;;;;;;21.20;72.70;;;;;;5013444;28;1303;-67
2021/09/27 09:54:56;;;;;;;;;;;21.20;72.70;;;;;;5013593;28;1903;-68
2021/09/27 09:57:26;;;;;;;;;;;21.20;72.70;;;;;;5013479;28;1325;-68
2021/09/27 10:00:14;;;;;;;;;;;21.20;72.70;;;;;;4996005;28;1335;-68
2021/09/27 10:02:40;;;;;;;;;;;21.20;72.70;;;;;;4996966;28;2153;-68
2021/09/27 10:05:10;;;;;;;;;;;21.20;72.70;;;;;;4995056;28;1299;-67
2021/09/27 10:07:46;;;;;;;;;;;21.20;72.70;;;;;;5004487;28;1135;-68
2021/09/27 10:10:15;;;;;;;;;;;21.10;72.70;;;;;;4995459;28;1515;-68
2021/09/27 10:12:41;;;;;;;;;;;21.10;72.60;;;;;;4995816;28;1270;-68
2021/09/27 10:15:07;;;;;;;;;;;21.10;72.70;;;;;;5013193;28;1985;-69
2021/09/27 10:17:34;;;;;;;;;;;21.10;72.60;;;;;;4995677;28;1447;-69
2021/09/27 10:20:05;;;;;;;;;;;21.10;72.60;;;;;;5012989;28;1350;-69
2021/09/27 10:22:37;;;;;;;;;;;21.10;72.70;;;;;;5013311;28;1258;-69
2021/09/27 10:25:03;;;;;;;;;;;21.10;72.70;;;;;;5013280;28;1451;-70
2021/09/27 10:27:28;;;;;;;;;;;21.10;72.70;;;;;;4995744;28;1349;-69
2021/09/27 10:29:54;;;;;;;;;;;21.10;72.60;;;;;;5012596;28;1346;-70
2021/09/27 10:32:27;;;;;;;;;;;21.10;72.60;;;;;;4995520;28;1333;-69
2021/09/27 10:34:53;;;;;;;;;;;21.10;72.70;;;;;;4995521;28;1911;-70
2021/09/27 10:37:20;;;;;;;;;;;21.10;72.60;;;;;;4995801;28;1258;-70
2021/09/27 10:39:46;;;;;;;;;;;21.10;72.60;;;;;;4995586;28;1238;-70
2021/09/27 10:42:12;;;;;;;;;;;21.10;72.60;;;;;;4979262;28;1369;-69
2021/09/27 10:44:37;;;;;;;;;;;21.10;72.60;;;;;;4995224;28;1385;-69
2021/09/27 10:47:22;;;;;;;;;;;21.10;72.50;;;;;;5013114;28;1930;-69
2021/09/27 10:49:49;;;;;;;;;;;21.10;72.50;;;;;;5021538;28;1378;-69
2021/09/27 10:52:17;;;;;;;;;;;21.10;72.50;;;;;;5007424;28;1338;-69
2021/09/27 10:54:43;;;;;;;;;;;21.10;72.50;;;;;;5021337;28;1960;-69
2021/09/27 10:57:18;;;;;;;;;;;21.10;72.50;;;;;;5016688;28;1291;-69
2021/09/27 10:59:53;;;;;;;;;;;21.10;72.50;;;;;;4999279;28;1395;-69
2021/09/27 11:02:25;;;;;;;;;;;21.10;72.50;;;;;;5016763;28;1391;-69
2021/09/27 11:04:53;;;;;;;;;;;21.10;72.50;;;;;;5016905;28;1291;-69
2021/09/27 11:07:27;;;;;;;;;;;21.10;72.80;;;;;;4999208;28;1369;-70
2021/09/27 11:09:53;;;;;;;;;;;21.10;73.10;;;;;;4998895;28;1299;-69
2021/09/27 11:12:25;;;;;;;;;;;21.10;72.90;;;;;;4999247;28;1330;-69
2021/09/27 11:14:56;;;;;;;;;;;21.10;72.90;;;;;;5016601;28;1902;-69
2021/09/27 11:17:42;;;;;;;;;;;21.10;73.00;;;;;;5016598;28;1061;-69
2021/09/27 11:20:16;;;;;;;;;;;21.10;73.00;;;;;;5015306;28;1269;-69
2021/09/27 11:22:53;;;;;;;;;;;21.10;73.10;;;;;;5016605;28;1301;-70
2021/09/27 11:25:22;;;;;;;;;;;21.10;73.20;;;;;;4999187;28;1255;-69
2021/09/27 11:28:06;;;;;;;;;;;21.10;73.20;;;;;;5016281;28;1376;-69
2021/09/27 11:30:50;;;;;;;;;;;21.10;73.20;;;;;;5015789;28;1301;-69
2021/09/27 11:33:18;;;;;;;;;;;21.10;73.30;;;;;;5016709;28;1254;-69
2021/09/27 11:35:44;;;;;;;;;;;21.10;73.30;;;;;;4998700;28;1910;-69
2021/09/27 11:38:27;;;;;;;;;;;21.10;73.40;;;;;;4982287;28;1300;-69
2021/09/27 11:40:54;;;;;;;;;;;21.10;73.40;;;;;;4998067;28;1370;-69
2021/09/27 11:43:33;;;;;;;;;;;21.10;73.50;;;;;;4999316;28;1439;-69
2021/09/27 11:46:06;;;;;;;;;;;21.10;73.60;;;;;;4998616;28;1432;-69
2021/09/27 11:48:43;;;;;;;;;;;21.10;73.60;;;;;;5007642;28;2128;-68
2021/09/27 11:51:09;;;;;;;;;;;21.10;73.70;;;;;;5026701;28;1341;-68
2021/09/27 11:53:34;;;;;;;;;;;21.10;73.80;;;;;;5019023;28;1102;-69
2021/09/27 11:56:01;;;;;;;;;;;21.10;73.80;;;;;;5013866;28;2120;-68
2021/09/27 11:58:31;;;;;;;;;;;21.10;73.80;;;;;;5008264;28;1252;-69
2021/09/27 12:01:02;;;;;;;;;;;21.10;73.90;;;;;;5000568;28;1501;-68
2021/09/27 12:04:06;;;;;;;;;;;21.10;74.00;;;;;;4997057;28;1333;-69
2021/09/27 12:06:32;;;;;;;;;;;21.10;74.00;;;;;;4916382;29;1354;-69
2021/09/27 12:09:02;;;;;;;;;;;21.10;74.10;;;;;;4900870;29;1528;-69
2021/09/27 12:11:28;;;;;;;;;;;21.10;74.20;;;;;;4949178;28;1324;-69
2021/09/27 12:13:59;;;;;;;;;;;21.10;74.30;;;;;;4997880;28;2345;-68
2021/09/27 12:16:37;;;;;;;;;;;21.10;74.30;;;;;;4997877;28;1292;-68
2021/09/27 12:19:14;;;;;;;;;;;21.10;74.40;;;;;;5015667;28;1356;-69
2021/09/27 12:21:47;;;;;;;;;;;21.10;74.50;;;;;;4997498;28;1277;-68
2021/09/27 12:24:13;;;;;;;;;;;21.10;74.60;;;;;;5015414;28;1253;-69
2021/09/27 12:27:02;;;;;;;;;;;21.10;74.60;;;;;;4997527;28;1102;-69
2021/09/27 12:29:28;;;;;;;;;;;21.10;74.60;;;;;;5001961;28;1373;-68
2021/09/27 12:31:54;;;;;;;;;;;21.10;74.70;;;;;;4997521;28;1334;-69
2021/09/27 12:34:24;;;;;;;;;;;21.10;74.70;;;;;;4997709;28;1910;-69
2021/09/27 12:36:50;;;;;;;;;;;21.10;74.70;;;;;;4997531;28;1322;-68
2021/09/27 12:39:18;;;;;;;;;;;21.10;74.80;;;;;;5014829;28;1575;-69
2021/09/27 12:41:43;;;;;;;;;;;21.10;74.80;;;;;;4997264;28;1263;-69
2021/09/27 12:44:10;;;;;;;;;;;21.10;74.90;;;;;;5015081;28;1337;-68
2021/09/27 12:46:36;;;;;;;;;;;21.10;74.90;;;;;;4997444;28;1401;-69
2021/09/27 12:49:02;;;;;;;;;;;21.10;74.80;;;;;;4997299;28;1390;-69
2021/09/27 12:51:29;;;;;;;;;;;21.10;74.90;;;;;;5014644;28;1294;-68
2021/09/27 12:53:56;;;;;;;;;;;21.10;74.90;;;;;;4997120;28;1890;-69
2021/09/27 12:56:22;;;;;;;;;;;21.10;74.90;;;;;;5014697;28;1337;-69
2021/09/27 12:59:07;;;;;;;;;;;21.10;74.90;;;;;;4997248;28;1281;-69
2021/09/27 13:01:34;;;;;;;;;;;21.10;75.00;;;;;;4997063;28;1337;-69
2021/09/27 13:04:00;;;;;;;;;;;21.10;75.00;;;;;;4997324;28;1302;-69
2021/09/27 13:06:27;;;;;;;;;;;21.10;75.00;;;;;;5014327;28;1337;-69
2021/09/27 13:09:04;;;;;;;;;;;21.10;74.90;;;;;;4996907;28;1329;-69
2021/09/27 13:11:33;;;;;;;;;;;21.10;75.00;;;;;;4996438;28;1291;-68
2021/09/27 13:14:14;;;;;;;;;;;21.10;74.90;;;;;;4996887;28;1906;-69
2021/09/27 13:16:40;;;;;;;;;;;21.10;75.00;;;;;;4996788;28;1243;-68
2021/09/27 13:19:06;;;;;;;;;;;21.10;75.00;;;;;;4996935;28;1320;-68
2021/09/27 13:21:35;;;;;;;;;;;21.10;75.00;;;;;;4996546;28;1351;-69
2021/09/27 13:24:05;;;;;;;;;;;21.10;75.00;;;;;;5014308;28;1274;-69
2021/09/27 13:26:33;;;;;;;;;;;21.10;75.00;;;;;;4996498;28;1350;-69
2021/09/27 13:29:00;;;;;;;;;;;21.10;75.00;;;;;;5014019;28;1325;-69
2021/09/27 13:31:27;;;;;;;;;;;21.10;74.90;;;;;;4995970;28;1375;-69
2021/09/27 13:33:53;;;;;;;;;;;21.10;75.00;;;;;;4996662;28;1077;-69
2021/09/27 13:36:41;;;;;;;;;;;21.10;74.80;;;;;;4996251;28;1907;-68
2021/09/27 13:39:09;;;;;;;;;;;21.10;75.10;;;;;;5013850;28;1374;-69
2021/09/27 13:41:40;;;;;;;;;;;21.10;75.00;;;;;;5013518;28;1085;-68
2021/09/27 13:44:05;;;;;;;;;;;21.10;74.90;;;;;;4996363;28;1427;-69
2021/09/27 13:46:31;;;;;;;;;;;21.10;75.00;;;;;;5013806;28;1286;-69
2021/09/27 13:48:57;;;;;;;;;;;21.10;74.90;;;;;;5013830;28;1456;-70
2021/09/27 13:51:27;;;;;;;;;;;21.10;75.00;;;;;;5013636;28;1307;-68
2021/09/27 13:53:54;;;;;;;;;;;21.10;75.00;;;;;;4996177;28;1262;-69
2021/09/27 13:56:23;;;;;;;;;;;21.10;75.10;;;;;;5013211;28;1890;-68
2021/09/27 13:58:49;;;;;;;;;;;21.10;75.10;;;;;;4995976;28;1406;-69
2021/09/27 14:01:14;;;;;;;;;;;21.10;75.10;;;;;;4979469;28;1114;-69
2021/09/27 14:03:40;;;;;;;;;;;21.20;75.40;;;;;;5013570;28;1370;-69
2021/09/27 14:06:05;;;;;;;;;;;21.10;75.30;;;;;;4995954;28;1271;-69
2021/09/27 14:08:31;;;;;;;;;;;21.10;75.40;;;;;;5013440;28;1246;-68
2021/09/27 14:10:56;;;;;;;;;;;21.10;75.50;;;;;;5013162;28;1301;-69
2021/09/27 14:13:25;;;;;;;;;;;21.20;76.30;;;;;;5013332;28;1266;-69
2021/09/27 14:15:51;;;;;;;;;;;21.20;75.50;;;;;;4996316;28;1910;-68
2021/09/27 14:18:16;;;;;;;;;;;21.10;75.50;;;;;;4995741;28;1281;-68
2021/09/27 14:20:42;;;;;;;;;;;21.20;75.70;;;;;;5012982;28;1369;-68
2021/09/27 14:23:08;;;;;;;;;;;21.20;75.70;;;;;;5013304;28;1273;-69
2021/09/27 14:25:33;;;;;;;;;;;21.20;75.80;;;;;;4995550;28;1153;-69
2021/09/27 14:27:59;;;;;;;;;;;21.20;75.90;;;;;;5012997;28;1042;-69
2021/09/27 14:30:24;;;;;;;;;;;21.20;76.00;;;;;;5012501;28;1186;-69
2021/09/27 14:32:50;;;;;;;;;;;21.20;76.70;;;;;;5013037;28;1328;-68
2021/09/27 14:35:16;;;;;;;;;;;21.20;76.80;;;;;;5013232;28;1981;-69
2021/09/27 14:37:44;;;;;;;;;;;21.20;76.00;;;;;;5013060;28;1232;-68
2021/09/27 14:40:10;;;;;;;;;;;21.20;76.10;;;;;;4995028;28;1361;-68
2021/09/27 14:42:35;;;;;;;;;;;21.20;76.10;;;;;;4995367;28;1373;-68
2021/09/27 14:45:02;;;;;;;;;;;21.20;76.20;;;;;;5013043;28;1266;-68
2021/09/27 14:47:27;;;;;;;;;;;21.20;76.10;;;;;;4995321;28;1380;-69